Terminal Aerodrome Forecast
Issued by NWS Louisville, KY

Home | Current Version | Previous Version | Text Only | Print | Product List | Glossary On
Versions: 1 2 3 4 5 6 7 8 9 10 11 12 13 14 15 16 17 18 19 20 21 22 23 24 25
000
FTUS43 KLMK 231400 AAA
TAFSDF
TAF AMD
KSDF 231433Z 2315/2418 19006KT 6SM BR VCSH OVC012
      TEMPO 2315/2319 4SM -DZ BR OVC008
     FM232200 VRB03KT 4SM -SHRA BR OVC008
     FM240900 15008KT 5SM -SHRA OVC015=

USA.gov is the U.S. government's official web portal to all federal, state and local government web resources and services.